sensor_id;sensor_type;location;lat;lon;timestamp;P1;durP1;ratioP1;P2;durP2;ratioP2
19830;SDS011;10076;52.008;4.708;2023-02-28T00:00:35;2.17;;;1.20;;
19830;SDS011;10076;52.008;4.708;2023-02-28T00:03:01;0.90;;;0.80;;
19830;SDS011;10076;52.008;4.708;2023-02-28T00:05:27;5.13;;;1.20;;
19830;SDS011;10076;52.008;4.708;2023-02-28T00:07:54;1.57;;;1.00;;
19830;SDS011;10076;52.008;4.708;2023-02-28T00:10:21;1.73;;;1.27;;
19830;SDS011;10076;52.008;4.708;2023-02-28T00:12:52;1.50;;;1.40;;
19830;SDS011;10076;52.008;4.708;2023-02-28T00:15:19;2.40;;;1.33;;
19830;SDS011;10076;52.008;4.708;2023-02-28T00:17:44;2.83;;;1.37;;
19830;SDS011;10076;52.008;4.708;2023-02-28T00:20:10;0.70;;;0.70;;
19830;SDS011;10076;52.008;4.708;2023-02-28T00:22:37;1.37;;;1.03;;
19830;SDS011;10076;52.008;4.708;2023-02-28T00:25:04;1.50;;;1.00;;
19830;SDS011;10076;52.008;4.708;2023-02-28T00:27:31;1.73;;;1.00;;
19830;SDS011;10076;52.008;4.708;2023-02-28T00:29:57;1.83;;;1.17;;
19830;SDS011;10076;52.008;4.708;2023-02-28T00:32:22;8.63;;;1.37;;
19830;SDS011;10076;52.008;4.708;2023-02-28T00:34:48;2.20;;;1.10;;
19830;SDS011;10076;52.008;4.708;2023-02-28T00:37:13;1.87;;;1.40;;
19830;SDS011;10076;52.008;4.708;2023-02-28T00:39:39;1.07;;;0.93;;
19830;SDS011;10076;52.008;4.708;2023-02-28T00:42:05;2.03;;;1.17;;
19830;SDS011;10076;52.008;4.708;2023-02-28T00:44:31;1.10;;;0.80;;
19830;SDS011;10076;52.008;4.708;2023-02-28T00:46:57;2.33;;;1.07;;
19830;SDS011;10076;52.008;4.708;2023-02-28T00:49:23;0.90;;;0.80;;
19830;SDS011;10076;52.008;4.708;2023-02-28T00:51:49;0.90;;;0.90;;
19830;SDS011;10076;52.008;4.708;2023-02-28T00:54:14;2.40;;;1.20;;
19830;SDS011;10076;52.008;4.708;2023-02-28T00:56:40;1.57;;;1.03;;
19830;SDS011;10076;52.008;4.708;2023-02-28T00:59:05;1.97;;;1.10;;
19830;SDS011;10076;52.008;4.708;2023-02-28T01:01:31;2.50;;;1.00;;
19830;SDS011;10076;52.008;4.708;2023-02-28T01:03:57;3.87;;;1.03;;
19830;SDS011;10076;52.008;4.708;2023-02-28T01:06:22;3.17;;;1.10;;
19830;SDS011;10076;52.008;4.708;2023-02-28T01:08:47;1.20;;;1.10;;
19830;SDS011;10076;52.008;4.708;2023-02-28T01:11:13;2.80;;;1.10;;
19830;SDS011;10076;52.008;4.708;2023-02-28T01:13:41;0.70;;;0.70;;
19830;SDS011;10076;52.008;4.708;2023-02-28T01:16:08;2.63;;;0.97;;
19830;SDS011;10076;52.008;4.708;2023-02-28T01:18:33;1.20;;;1.00;;
19830;SDS011;10076;52.008;4.708;2023-02-28T01:21:02;3.83;;;1.00;;
19830;SDS011;10076;52.008;4.708;2023-02-28T01:23:31;1.43;;;0.87;;
19830;SDS011;10076;52.008;4.708;2023-02-28T01:25:57;1.83;;;0.80;;
19830;SDS011;10076;52.008;4.708;2023-02-28T01:28:22;1.87;;;0.90;;
19830;SDS011;10076;52.008;4.708;2023-02-28T01:30:51;1.87;;;1.00;;
19830;SDS011;10076;52.008;4.708;2023-02-28T01:33:16;2.63;;;1.00;;
19830;SDS011;10076;52.008;4.708;2023-02-28T01:35:41;7.50;;;1.40;;
19830;SDS011;10076;52.008;4.708;2023-02-28T01:38:07;1.33;;;1.20;;
19830;SDS011;10076;52.008;4.708;2023-02-28T01:40:32;1.53;;;1.10;;
19830;SDS011;10076;52.008;4.708;2023-02-28T01:42:57;7.13;;;1.63;;
19830;SDS011;10076;52.008;4.708;2023-02-28T01:45:26;1.87;;;1.13;;
19830;SDS011;10076;52.008;4.708;2023-02-28T01:47:57;2.37;;;1.33;;
19830;SDS011;10076;52.008;4.708;2023-02-28T01:50:26;2.90;;;1.37;;
19830;SDS011;10076;52.008;4.708;2023-02-28T01:52:55;5.57;;;0.90;;
19830;SDS011;10076;52.008;4.708;2023-02-28T01:55:25;1.90;;;1.20;;
19830;SDS011;10076;52.008;4.708;2023-02-28T01:57:54;1.73;;;1.07;;
19830;SDS011;10076;52.008;4.708;2023-02-28T02:00:22;3.87;;;1.57;;
19830;SDS011;10076;52.008;4.708;2023-02-28T02:02:50;4.57;;;1.30;;
19830;SDS011;10076;52.008;4.708;2023-02-28T02:05:19;0.87;;;0.83;;
19830;SDS011;10076;52.008;4.708;2023-02-28T02:07:47;2.03;;;1.20;;
19830;SDS011;10076;52.008;4.708;2023-02-28T02:18:33;1.10;;;1.00;;
19830;SDS011;10076;52.008;4.708;2023-02-28T02:21:09;1.50;;;1.17;;
19830;SDS011;10076;52.008;4.708;2023-02-28T02:23:44;1.60;;;1.00;;
19830;SDS011;10076;52.008;4.708;2023-02-28T02:26:26;1.80;;;1.23;;
19830;SDS011;10076;52.008;4.708;2023-02-28T02:32:13;3.37;;;0.90;;
19830;SDS011;10076;52.008;4.708;2023-02-28T02:40:43;2.37;;;1.30;;
19830;SDS011;10076;52.008;4.708;2023-02-28T02:43:33;2.93;;;1.10;;
19830;SDS011;10076;52.008;4.708;2023-02-28T02:46:08;2.13;;;1.10;;
19830;SDS011;10076;52.008;4.708;2023-02-28T02:48:40;2.17;;;0.80;;
19830;SDS011;10076;52.008;4.708;2023-02-28T02:51:10;1.80;;;1.17;;
19830;SDS011;10076;52.008;4.708;2023-02-28T02:53:56;3.33;;;1.43;;
19830;SDS011;10076;52.008;4.708;2023-02-28T02:56:28;1.10;;;1.00;;
19830;SDS011;10076;52.008;4.708;2023-02-28T02:59:01;4.10;;;1.27;;
19830;SDS011;10076;52.008;4.708;2023-02-28T03:01:30;2.73;;;1.20;;
19830;SDS011;10076;52.008;4.708;2023-02-28T03:03:57;4.30;;;1.20;;
19830;SDS011;10076;52.008;4.708;2023-02-28T03:06:26;1.83;;;1.10;;
19830;SDS011;10076;52.008;4.708;2023-02-28T03:08:51;3.87;;;1.03;;
19830;SDS011;10076;52.008;4.708;2023-02-28T03:11:17;1.53;;;1.10;;
19830;SDS011;10076;52.008;4.708;2023-02-28T03:13:52;1.30;;;1.20;;
19830;SDS011;10076;52.008;4.708;2023-02-28T03:24:43;6.20;;;1.50;;
19830;SDS011;10076;52.008;4.708;2023-02-28T03:27:28;2.20;;;1.27;;
19830;SDS011;10076;52.008;4.708;2023-02-28T03:32:57;2.90;;;1.17;;
19830;SDS011;10076;52.008;4.708;2023-02-28T03:36:22;1.90;;;1.13;;
19830;SDS011;10076;52.008;4.708;2023-02-28T03:38:40;2.10;;;1.27;;
19830;SDS011;10076;52.008;4.708;2023-02-28T03:41:14;1.67;;;0.83;;
19830;SDS011;10076;52.008;4.708;2023-02-28T03:44:30;2.27;;;1.60;;
19830;SDS011;10076;52.008;4.708;2023-02-28T03:46:42;1.00;;;0.77;;
19830;SDS011;10076;52.008;4.708;2023-02-28T03:49:15;1.53;;;1.40;;
19830;SDS011;10076;52.008;4.708;2023-02-28T03:51:45;4.30;;;1.13;;
19830;SDS011;10076;52.008;4.708;2023-02-28T03:54:13;1.80;;;1.17;;
19830;SDS011;10076;52.008;4.708;2023-02-28T03:56:45;2.77;;;1.20;;
19830;SDS011;10076;52.008;4.708;2023-02-28T04:01:57;1.27;;;1.10;;
19830;SDS011;10076;52.008;4.708;2023-02-28T04:04:23;2.23;;;1.00;;
19830;SDS011;10076;52.008;4.708;2023-02-28T04:06:49;2.43;;;1.40;;
19830;SDS011;10076;52.008;4.708;2023-02-28T04:09:16;2.40;;;1.20;;
19830;SDS011;10076;52.008;4.708;2023-02-28T04:11:46;2.97;;;1.40;;
19830;SDS011;10076;52.008;4.708;2023-02-28T04:14:16;2.00;;;1.30;;
19830;SDS011;10076;52.008;4.708;2023-02-28T04:16:42;2.30;;;1.47;;
19830;SDS011;10076;52.008;4.708;2023-02-28T04:19:08;4.47;;;1.87;;
19830;SDS011;10076;52.008;4.708;2023-02-28T04:21:36;1.97;;;1.50;;
19830;SDS011;10076;52.008;4.708;2023-02-28T04:24:10;1.67;;;1.40;;
19830;SDS011;10076;52.008;4.708;2023-02-28T04:26:39;2.60;;;1.60;;
19830;SDS011;10076;52.008;4.708;2023-02-28T04:29:05;4.00;;;1.53;;
19830;SDS011;10076;52.008;4.708;2023-02-28T04:31:31;1.70;;;1.50;;
19830;SDS011;10076;52.008;4.708;2023-02-28T04:33:57;4.23;;;1.70;;
19830;SDS011;10076;52.008;4.708;2023-02-28T04:36:22;1.97;;;1.50;;
19830;SDS011;10076;52.008;4.708;2023-02-28T04:38:48;2.77;;;2.20;;
19830;SDS011;10076;52.008;4.708;2023-02-28T04:41:14;2.67;;;1.53;;
19830;SDS011;10076;52.008;4.708;2023-02-28T04:43:39;2.90;;;1.70;;
19830;SDS011;10076;52.008;4.708;2023-02-28T04:46:05;3.83;;;1.50;;
19830;SDS011;10076;52.008;4.708;2023-02-28T04:48:31;1.93;;;1.73;;
19830;SDS011;10076;52.008;4.708;2023-02-28T04:51:02;2.23;;;1.40;;
19830;SDS011;10076;52.008;4.708;2023-02-28T04:53:34;3.67;;;1.67;;
19830;SDS011;10076;52.008;4.708;2023-02-28T04:56:00;3.27;;;1.50;;
19830;SDS011;10076;52.008;4.708;2023-02-28T04:58:26;1.97;;;1.63;;
19830;SDS011;10076;52.008;4.708;2023-02-28T05:00:53;2.80;;;1.63;;
19830;SDS011;10076;52.008;4.708;2023-02-28T05:03:19;3.47;;;1.70;;
19830;SDS011;10076;52.008;4.708;2023-02-28T05:05:47;4.70;;;2.00;;
19830;SDS011;10076;52.008;4.708;2023-02-28T05:08:12;2.00;;;1.80;;
19830;SDS011;10076;52.008;4.708;2023-02-28T05:10:38;2.47;;;1.67;;
19830;SDS011;10076;52.008;4.708;2023-02-28T05:13:04;3.53;;;1.80;;
19830;SDS011;10076;52.008;4.708;2023-02-28T05:15:29;3.17;;;1.70;;
19830;SDS011;10076;52.008;4.708;2023-02-28T05:17:54;3.67;;;2.37;;
19830;SDS011;10076;52.008;4.708;2023-02-28T05:20:20;2.33;;;1.80;;
19830;SDS011;10076;52.008;4.708;2023-02-28T05:22:46;5.60;;;1.80;;
19830;SDS011;10076;52.008;4.708;2023-02-28T05:25:12;4.40;;;2.27;;
19830;SDS011;10076;52.008;4.708;2023-02-28T05:27:41;5.13;;;2.57;;
19830;SDS011;10076;52.008;4.708;2023-02-28T05:30:07;3.53;;;2.17;;
19830;SDS011;10076;52.008;4.708;2023-02-28T05:32:35;3.37;;;1.90;;
19830;SDS011;10076;52.008;4.708;2023-02-28T05:35:03;3.20;;;1.93;;
19830;SDS011;10076;52.008;4.708;2023-02-28T05:37:29;4.77;;;2.07;;
19830;SDS011;10076;52.008;4.708;2023-02-28T05:39:55;4.70;;;2.00;;
19830;SDS011;10076;52.008;4.708;2023-02-28T05:42:20;2.07;;;1.80;;
19830;SDS011;10076;52.008;4.708;2023-02-28T05:44:45;4.33;;;2.40;;
19830;SDS011;10076;52.008;4.708;2023-02-28T05:47:11;3.60;;;2.17;;
19830;SDS011;10076;52.008;4.708;2023-02-28T05:49:40;3.80;;;1.90;;
19830;SDS011;10076;52.008;4.708;2023-02-28T05:52:05;6.70;;;2.63;;
19830;SDS011;10076;52.008;4.708;2023-02-28T05:54:30;3.43;;;2.10;;
19830;SDS011;10076;52.008;4.708;2023-02-28T05:56:56;2.93;;;1.70;;
19830;SDS011;10076;52.008;4.708;2023-02-28T05:59:21;2.80;;;1.87;;
19830;SDS011;10076;52.008;4.708;2023-02-28T06:01:46;2.33;;;1.57;;
19830;SDS011;10076;52.008;4.708;2023-02-28T06:04:15;2.33;;;1.63;;
19830;SDS011;10076;52.008;4.708;2023-02-28T06:06:44;2.63;;;1.63;;
19830;SDS011;10076;52.008;4.708;2023-02-28T06:09:10;3.87;;;2.00;;
19830;SDS011;10076;52.008;4.708;2023-02-28T06:11:36;2.47;;;1.60;;
19830;SDS011;10076;52.008;4.708;2023-02-28T06:14:02;4.17;;;1.50;;
19830;SDS011;10076;52.008;4.708;2023-02-28T06:16:28;2.20;;;1.60;;
19830;SDS011;10076;52.008;4.708;2023-02-28T06:18:59;1.57;;;1.33;;
19830;SDS011;10076;52.008;4.708;2023-02-28T06:21:26;2.07;;;1.67;;
19830;SDS011;10076;52.008;4.708;2023-02-28T06:23:52;1.67;;;1.47;;
19830;SDS011;10076;52.008;4.708;2023-02-28T06:26:18;1.93;;;1.47;;
19830;SDS011;10076;52.008;4.708;2023-02-28T06:28:44;2.40;;;1.57;;
19830;SDS011;10076;52.008;4.708;2023-02-28T06:31:10;2.40;;;1.90;;
19830;SDS011;10076;52.008;4.708;2023-02-28T06:33:37;2.23;;;1.57;;
19830;SDS011;10076;52.008;4.708;2023-02-28T06:36:04;1.50;;;1.40;;
19830;SDS011;10076;52.008;4.708;2023-02-28T06:38:30;3.10;;;1.77;;
19830;SDS011;10076;52.008;4.708;2023-02-28T06:40:56;3.73;;;1.80;;
19830;SDS011;10076;52.008;4.708;2023-02-28T06:43:23;1.57;;;1.30;;
19830;SDS011;10076;52.008;4.708;2023-02-28T06:45:50;3.67;;;1.97;;
19830;SDS011;10076;52.008;4.708;2023-02-28T06:48:15;2.73;;;1.80;;
19830;SDS011;10076;52.008;4.708;2023-02-28T06:50:41;4.47;;;1.63;;
19830;SDS011;10076;52.008;4.708;2023-02-28T06:53:07;6.77;;;2.00;;
19830;SDS011;10076;52.008;4.708;2023-02-28T06:55:32;2.20;;;1.40;;
19830;SDS011;10076;52.008;4.708;2023-02-28T06:57:58;3.07;;;1.60;;
19830;SDS011;10076;52.008;4.708;2023-02-28T07:00:23;1.33;;;1.23;;
19830;SDS011;10076;52.008;4.708;2023-02-28T07:02:50;1.30;;;1.07;;
19830;SDS011;10076;52.008;4.708;2023-02-28T07:05:15;1.23;;;1.13;;
19830;SDS011;10076;52.008;4.708;2023-02-28T07:07:41;4.33;;;1.80;;
19830;SDS011;10076;52.008;4.708;2023-02-28T07:10:09;1.67;;;1.43;;
19830;SDS011;10076;52.008;4.708;2023-02-28T07:12:36;2.23;;;1.60;;
19830;SDS011;10076;52.008;4.708;2023-02-28T07:15:02;2.93;;;1.43;;
19830;SDS011;10076;52.008;4.708;2023-02-28T07:17:28;2.97;;;1.33;;
19830;SDS011;10076;52.008;4.708;2023-02-28T07:19:54;1.73;;;1.27;;
19830;SDS011;10076;52.008;4.708;2023-02-28T07:22:19;5.73;;;3.23;;
19830;SDS011;10076;52.008;4.708;2023-02-28T07:24:44;8.37;;;1.97;;
19830;SDS011;10076;52.008;4.708;2023-02-28T07:27:09;2.63;;;1.40;;
19830;SDS011;10076;52.008;4.708;2023-02-28T07:29:35;2.07;;;1.50;;
19830;SDS011;10076;52.008;4.708;2023-02-28T07:32:01;1.67;;;1.53;;
19830;SDS011;10076;52.008;4.708;2023-02-28T07:34:26;3.30;;;1.63;;
19830;SDS011;10076;52.008;4.708;2023-02-28T07:36:54;1.33;;;1.23;;
19830;SDS011;10076;52.008;4.708;2023-02-28T07:39:20;3.97;;;2.60;;
19830;SDS011;10076;52.008;4.708;2023-02-28T07:41:46;4.57;;;3.10;;
19830;SDS011;10076;52.008;4.708;2023-02-28T07:44:12;4.53;;;3.00;;
19830;SDS011;10076;52.008;4.708;2023-02-28T07:46:37;8.37;;;2.10;;
19830;SDS011;10076;52.008;4.708;2023-02-28T07:49:03;2.93;;;1.87;;
19830;SDS011;10076;52.008;4.708;2023-02-28T07:51:29;2.20;;;1.93;;
19830;SDS011;10076;52.008;4.708;2023-02-28T07:53:55;2.07;;;1.60;;
19830;SDS011;10076;52.008;4.708;2023-02-28T07:56:21;3.60;;;2.03;;
19830;SDS011;10076;52.008;4.708;2023-02-28T07:58:46;2.47;;;1.57;;
19830;SDS011;10076;52.008;4.708;2023-02-28T08:01:12;4.27;;;1.50;;
19830;SDS011;10076;52.008;4.708;2023-02-28T08:03:38;2.97;;;1.70;;
19830;SDS011;10076;52.008;4.708;2023-02-28T08:06:04;2.23;;;1.57;;
19830;SDS011;10076;52.008;4.708;2023-02-28T08:08:31;4.07;;;2.40;;
19830;SDS011;10076;52.008;4.708;2023-02-28T08:10:58;5.20;;;2.53;;
19830;SDS011;10076;52.008;4.708;2023-02-28T08:13:25;3.40;;;1.93;;
19830;SDS011;10076;52.008;4.708;2023-02-28T08:15:52;4.20;;;2.20;;
19830;SDS011;10076;52.008;4.708;2023-02-28T08:18:18;3.90;;;2.57;;
19830;SDS011;10076;52.008;4.708;2023-02-28T08:20:43;4.03;;;2.67;;
19830;SDS011;10076;52.008;4.708;2023-02-28T08:23:09;4.27;;;3.03;;
19830;SDS011;10076;52.008;4.708;2023-02-28T08:25:34;5.27;;;2.67;;
19830;SDS011;10076;52.008;4.708;2023-02-28T08:27:59;4.70;;;2.83;;
19830;SDS011;10076;52.008;4.708;2023-02-28T08:30:25;4.07;;;2.33;;
19830;SDS011;10076;52.008;4.708;2023-02-28T08:32:51;5.57;;;3.23;;
19830;SDS011;10076;52.008;4.708;2023-02-28T08:35:16;5.83;;;2.70;;
19830;SDS011;10076;52.008;4.708;2023-02-28T08:37:41;2.60;;;1.70;;
19830;SDS011;10076;52.008;4.708;2023-02-28T08:40:07;2.20;;;1.80;;
19830;SDS011;10076;52.008;4.708;2023-02-28T08:42:33;4.03;;;2.57;;
19830;SDS011;10076;52.008;4.708;2023-02-28T08:44:58;3.27;;;2.00;;
19830;SDS011;10076;52.008;4.708;2023-02-28T08:47:23;4.60;;;2.10;;
19830;SDS011;10076;52.008;4.708;2023-02-28T08:49:49;2.53;;;2.03;;
19830;SDS011;10076;52.008;4.708;2023-02-28T08:52:14;3.43;;;2.50;;
19830;SDS011;10076;52.008;4.708;2023-02-28T08:54:40;2.87;;;1.93;;
19830;SDS011;10076;52.008;4.708;2023-02-28T08:57:05;2.77;;;2.40;;
19830;SDS011;10076;52.008;4.708;2023-02-28T08:59:30;6.37;;;2.43;;
19830;SDS011;10076;52.008;4.708;2023-02-28T09:01:57;3.50;;;1.70;;
19830;SDS011;10076;52.008;4.708;2023-02-28T09:04:22;4.63;;;2.00;;
19830;SDS011;10076;52.008;4.708;2023-02-28T09:06:47;4.70;;;3.00;;
19830;SDS011;10076;52.008;4.708;2023-02-28T09:09:13;3.20;;;2.37;;
19830;SDS011;10076;52.008;4.708;2023-02-28T09:11:39;2.77;;;2.23;;
19830;SDS011;10076;52.008;4.708;2023-02-28T09:14:04;2.10;;;1.90;;
19830;SDS011;10076;52.008;4.708;2023-02-28T09:16:33;3.50;;;2.23;;
19830;SDS011;10076;52.008;4.708;2023-02-28T09:18:59;8.63;;;2.03;;
19830;SDS011;10076;52.008;4.708;2023-02-28T09:21:25;3.10;;;2.00;;
19830;SDS011;10076;52.008;4.708;2023-02-28T09:23:50;1.93;;;1.80;;
19830;SDS011;10076;52.008;4.708;2023-02-28T09:26:20;3.73;;;2.00;;
19830;SDS011;10076;52.008;4.708;2023-02-28T09:28:48;6.33;;;2.00;;
19830;SDS011;10076;52.008;4.708;2023-02-28T09:31:14;2.27;;;1.73;;
19830;SDS011;10076;52.008;4.708;2023-02-28T09:33:41;5.33;;;1.37;;
19830;SDS011;10076;52.008;4.708;2023-02-28T09:36:07;3.70;;;1.80;;
19830;SDS011;10076;52.008;4.708;2023-02-28T09:38:33;5.30;;;1.90;;
19830;SDS011;10076;52.008;4.708;2023-02-28T09:40:59;4.20;;;2.60;;
19830;SDS011;10076;52.008;4.708;2023-02-28T09:43:38;2.80;;;1.80;;
19830;SDS011;10076;52.008;4.708;2023-02-28T09:46:14;4.53;;;2.30;;
19830;SDS011;10076;52.008;4.708;2023-02-28T09:48:51;3.33;;;1.90;;
19830;SDS011;10076;52.008;4.708;2023-02-28T09:51:28;4.70;;;2.40;;
19830;SDS011;10076;52.008;4.708;2023-02-28T09:53:59;4.20;;;2.57;;
19830;SDS011;10076;52.008;4.708;2023-02-28T09:56:27;3.37;;;1.90;;
19830;SDS011;10076;52.008;4.708;2023-02-28T09:59:01;3.80;;;2.40;;
19830;SDS011;10076;52.008;4.708;2023-02-28T10:01:30;3.10;;;2.33;;
19830;SDS011;10076;52.008;4.708;2023-02-28T10:06:50;2.87;;;2.13;;
19830;SDS011;10076;52.008;4.708;2023-02-28T10:09:27;4.33;;;2.13;;
19830;SDS011;10076;52.008;4.708;2023-02-28T10:12:00;2.57;;;2.30;;
19830;SDS011;10076;52.008;4.708;2023-02-28T10:14:30;3.70;;;2.30;;
19830;SDS011;10076;52.008;4.708;2023-02-28T10:16:59;3.03;;;2.27;;
19830;SDS011;10076;52.008;4.708;2023-02-28T10:24:55;2.10;;;1.90;;
19830;SDS011;10076;52.008;4.708;2023-02-28T10:27:26;4.33;;;2.30;;
19830;SDS011;10076;52.008;4.708;2023-02-28T10:29:56;2.23;;;1.77;;
19830;SDS011;10076;52.008;4.708;2023-02-28T10:32:26;2.70;;;2.10;;
19830;SDS011;10076;52.008;4.708;2023-02-28T10:37:41;2.37;;;1.70;;
19830;SDS011;10076;52.008;4.708;2023-02-28T10:40:29;3.20;;;2.20;;
19830;SDS011;10076;52.008;4.708;2023-02-28T10:45:31;2.67;;;2.03;;
19830;SDS011;10076;52.008;4.708;2023-02-28T10:48:01;4.00;;;2.27;;
19830;SDS011;10076;52.008;4.708;2023-02-28T10:50:37;3.77;;;2.20;;
19830;SDS011;10076;52.008;4.708;2023-02-28T10:53:14;2.80;;;1.83;;
19830;SDS011;10076;52.008;4.708;2023-02-28T11:01:35;1.80;;;1.70;;
19830;SDS011;10076;52.008;4.708;2023-02-28T11:07:27;2.53;;;1.88;;
19830;SDS011;10076;52.008;4.708;2023-02-28T11:09:50;2.60;;;1.58;;
19830;SDS011;10076;52.008;4.708;2023-02-28T11:12:28;3.95;;;1.67;;
19830;SDS011;10076;52.008;4.708;2023-02-28T11:15:00;1.95;;;1.75;;
19830;SDS011;10076;52.008;4.708;2023-02-28T11:17:30;2.72;;;1.60;;
19830;SDS011;10076;52.008;4.708;2023-02-28T11:20:01;1.95;;;1.52;;
19830;SDS011;10076;52.008;4.708;2023-02-28T11:22:32;3.95;;;1.90;;
19830;SDS011;10076;52.008;4.708;2023-02-28T11:25:06;4.53;;;2.05;;
19830;SDS011;10076;52.008;4.708;2023-02-28T11:27:48;2.70;;;1.75;;
19830;SDS011;10076;52.008;4.708;2023-02-28T11:30:25;1.60;;;1.50;;
19830;SDS011;10076;52.008;4.708;2023-02-28T11:32:53;2.38;;;1.83;;
19830;SDS011;10076;52.008;4.708;2023-02-28T11:35:21;1.80;;;1.57;;
19830;SDS011;10076;52.008;4.708;2023-02-28T11:37:50;2.63;;;1.60;;
19830;SDS011;10076;52.008;4.708;2023-02-28T11:40:21;2.47;;;1.77;;
19830;SDS011;10076;52.008;4.708;2023-02-28T11:48:30;2.23;;;1.40;;
19830;SDS011;10076;52.008;4.708;2023-02-28T11:56:22;2.70;;;1.70;;
19830;SDS011;10076;52.008;4.708;2023-02-28T11:59:12;3.08;;;1.67;;
19830;SDS011;10076;52.008;4.708;2023-02-28T12:10:37;2.95;;;1.50;;
19830;SDS011;10076;52.008;4.708;2023-02-28T12:13:21;1.92;;;1.50;;
19830;SDS011;10076;52.008;4.708;2023-02-28T12:27:00;1.98;;;1.73;;
19830;SDS011;10076;52.008;4.708;2023-02-28T12:29:37;2.72;;;1.85;;
19830;SDS011;10076;52.008;4.708;2023-02-28T12:32:33;2.30;;;1.55;;
19830;SDS011;10076;52.008;4.708;2023-02-28T12:37:29;1.73;;;1.63;;
19830;SDS011;10076;52.008;4.708;2023-02-28T12:40:00;1.90;;;1.70;;
19830;SDS011;10076;52.008;4.708;2023-02-28T12:42:34;2.22;;;1.95;;
19830;SDS011;10076;52.008;4.708;2023-02-28T12:45:12;2.15;;;1.88;;
19830;SDS011;10076;52.008;4.708;2023-02-28T12:47:43;2.35;;;2.03;;
19830;SDS011;10076;52.008;4.708;2023-02-28T12:50:12;2.03;;;1.70;;
19830;SDS011;10076;52.008;4.708;2023-02-28T12:52:59;2.47;;;1.80;;
19830;SDS011;10076;52.008;4.708;2023-02-28T12:58:11;2.22;;;1.88;;
19830;SDS011;10076;52.008;4.708;2023-02-28T13:01:26;2.45;;;2.05;;
19830;SDS011;10076;52.008;4.708;2023-02-28T13:09:19;4.05;;;2.42;;
19830;SDS011;10076;52.008;4.708;2023-02-28T13:11:55;2.33;;;1.85;;
19830;SDS011;10076;52.008;4.708;2023-02-28T13:14:59;2.38;;;2.17;;
19830;SDS011;10076;52.008;4.708;2023-02-28T13:17:21;3.42;;;2.50;;
19830;SDS011;10076;52.008;4.708;2023-02-28T13:22:20;2.05;;;1.70;;
19830;SDS011;10076;52.008;4.708;2023-02-28T13:27:59;2.78;;;2.25;;
19830;SDS011;10076;52.008;4.708;2023-02-28T13:33:23;2.03;;;1.80;;
19830;SDS011;10076;52.008;4.708;2023-02-28T13:44:01;3.22;;;1.90;;
19830;SDS011;10076;52.008;4.708;2023-02-28T13:51:51;2.85;;;2.00;;
19830;SDS011;10076;52.008;4.708;2023-02-28T14:05:35;2.33;;;1.92;;
19830;SDS011;10076;52.008;4.708;2023-02-28T14:08:05;2.35;;;2.10;;
19830;SDS011;10076;52.008;4.708;2023-02-28T14:13:36;2.78;;;2.42;;
19830;SDS011;10076;52.008;4.708;2023-02-28T14:16:10;2.10;;;1.90;;
19830;SDS011;10076;52.008;4.708;2023-02-28T14:18:37;10.60;;;6.13;;
19830;SDS011;10076;52.008;4.708;2023-02-28T14:21:09;5.90;;;3.55;;
19830;SDS011;10076;52.008;4.708;2023-02-28T14:35:03;4.15;;;3.80;;
19830;SDS011;10076;52.008;4.708;2023-02-28T14:37:41;2.05;;;1.85;;
19830;SDS011;10076;52.008;4.708;2023-02-28T14:40:15;3.08;;;2.38;;
19830;SDS011;10076;52.008;4.708;2023-02-28T14:42:57;9.05;;;6.00;;
19830;SDS011;10076;52.008;4.708;2023-02-28T14:45:25;3.10;;;2.67;;
19830;SDS011;10076;52.008;4.708;2023-02-28T14:47:54;2.72;;;2.05;;
19830;SDS011;10076;52.008;4.708;2023-02-28T14:50:24;3.03;;;2.17;;
19830;SDS011;10076;52.008;4.708;2023-02-28T14:52:54;6.00;;;4.03;;
19830;SDS011;10076;52.008;4.708;2023-02-28T14:55:23;7.32;;;4.95;;
19830;SDS011;10076;52.008;4.708;2023-02-28T14:57:52;5.30;;;3.17;;
19830;SDS011;10076;52.008;4.708;2023-02-28T15:00:30;4.00;;;2.60;;
19830;SDS011;10076;52.008;4.708;2023-02-28T15:02:58;4.25;;;3.60;;
19830;SDS011;10076;52.008;4.708;2023-02-28T15:08:11;3.80;;;2.95;;
19830;SDS011;10076;52.008;4.708;2023-02-28T15:10:39;3.17;;;2.88;;
19830;SDS011;10076;52.008;4.708;2023-02-28T15:13:12;2.42;;;2.22;;
19830;SDS011;10076;52.008;4.708;2023-02-28T15:18:05;3.53;;;2.92;;
19830;SDS011;10076;52.008;4.708;2023-02-28T15:20:31;2.60;;;2.40;;
19830;SDS011;10076;52.008;4.708;2023-02-28T15:22:58;3.40;;;2.25;;
19830;SDS011;10076;52.008;4.708;2023-02-28T15:25:24;3.67;;;2.40;;
19830;SDS011;10076;52.008;4.708;2023-02-28T15:27:52;2.10;;;1.83;;
19830;SDS011;10076;52.008;4.708;2023-02-28T15:38:54;5.40;;;4.03;;
19830;SDS011;10076;52.008;4.708;2023-02-28T15:41:27;4.65;;;4.22;;
19830;SDS011;10076;52.008;4.708;2023-02-28T15:46:50;2.28;;;2.05;;
19830;SDS011;10076;52.008;4.708;2023-02-28T15:49:20;2.50;;;2.30;;
19830;SDS011;10076;52.008;4.708;2023-02-28T15:51:47;2.80;;;2.53;;
19830;SDS011;10076;52.008;4.708;2023-02-28T15:54:17;2.75;;;2.50;;
19830;SDS011;10076;52.008;4.708;2023-02-28T15:56:47;2.80;;;2.25;;
19830;SDS011;10076;52.008;4.708;2023-02-28T15:59:21;3.60;;;3.08;;
19830;SDS011;10076;52.008;4.708;2023-02-28T16:04:34;2.88;;;2.40;;
19830;SDS011;10076;52.008;4.708;2023-02-28T16:07:06;2.75;;;2.55;;
19830;SDS011;10076;52.008;4.708;2023-02-28T16:09:37;4.10;;;2.00;;
19830;SDS011;10076;52.008;4.708;2023-02-28T16:12:03;3.10;;;2.30;;
19830;SDS011;10076;52.008;4.708;2023-02-28T16:14:30;3.85;;;2.55;;
19830;SDS011;10076;52.008;4.708;2023-02-28T16:16:57;2.88;;;2.58;;
19830;SDS011;10076;52.008;4.708;2023-02-28T16:19:28;3.08;;;2.35;;
19830;SDS011;10076;52.008;4.708;2023-02-28T16:21:54;3.65;;;2.63;;
19830;SDS011;10076;52.008;4.708;2023-02-28T16:24:19;4.43;;;2.70;;
19830;SDS011;10076;52.008;4.708;2023-02-28T16:26:45;3.92;;;3.17;;
19830;SDS011;10076;52.008;4.708;2023-02-28T16:29:18;4.20;;;2.85;;
19830;SDS011;10076;52.008;4.708;2023-02-28T16:31:59;3.00;;;2.60;;
19830;SDS011;10076;52.008;4.708;2023-02-28T16:34:25;3.30;;;2.97;;
19830;SDS011;10076;52.008;4.708;2023-02-28T16:36:51;3.70;;;2.90;;
19830;SDS011;10076;52.008;4.708;2023-02-28T16:39:17;4.75;;;3.67;;
19830;SDS011;10076;52.008;4.708;2023-02-28T16:41:45;4.43;;;2.63;;
19830;SDS011;10076;52.008;4.708;2023-02-28T16:44:14;3.65;;;2.63;;
19830;SDS011;10076;52.008;4.708;2023-02-28T16:46:52;5.03;;;2.35;;
19830;SDS011;10076;52.008;4.708;2023-02-28T16:49:17;4.68;;;2.65;;
19830;SDS011;10076;52.008;4.708;2023-02-28T16:51:43;3.08;;;2.72;;
19830;SDS011;10076;52.008;4.708;2023-02-28T16:54:08;3.35;;;2.53;;
19830;SDS011;10076;52.008;4.708;2023-02-28T16:56:33;3.55;;;2.42;;
19830;SDS011;10076;52.008;4.708;2023-02-28T16:58:59;4.22;;;2.70;;
19830;SDS011;10076;52.008;4.708;2023-02-28T17:01:26;3.55;;;2.40;;
19830;SDS011;10076;52.008;4.708;2023-02-28T17:03:52;3.97;;;2.90;;
19830;SDS011;10076;52.008;4.708;2023-02-28T17:06:19;2.60;;;2.40;;
19830;SDS011;10076;52.008;4.708;2023-02-28T17:08:51;3.97;;;2.40;;
19830;SDS011;10076;52.008;4.708;2023-02-28T17:11:17;3.60;;;2.50;;
19830;SDS011;10076;52.008;4.708;2023-02-28T17:13:43;3.73;;;2.40;;
19830;SDS011;10076;52.008;4.708;2023-02-28T17:16:20;3.47;;;2.40;;
19830;SDS011;10076;52.008;4.708;2023-02-28T17:18:46;4.47;;;2.87;;
19830;SDS011;10076;52.008;4.708;2023-02-28T17:21:15;4.00;;;2.63;;
19830;SDS011;10076;52.008;4.708;2023-02-28T17:23:41;2.33;;;2.13;;
19830;SDS011;10076;52.008;4.708;2023-02-28T17:26:06;4.70;;;2.73;;
19830;SDS011;10076;52.008;4.708;2023-02-28T17:28:35;3.40;;;2.27;;
19830;SDS011;10076;52.008;4.708;2023-02-28T17:31:01;3.73;;;2.90;;
19830;SDS011;10076;52.008;4.708;2023-02-28T17:33:26;6.33;;;2.90;;
19830;SDS011;10076;52.008;4.708;2023-02-28T17:35:51;5.40;;;3.10;;
19830;SDS011;10076;52.008;4.708;2023-02-28T17:38:17;5.70;;;2.73;;
19830;SDS011;10076;52.008;4.708;2023-02-28T17:40:44;4.07;;;2.60;;